createdAt,value
2023-04-15T00:01:37.084Z,7.82
2023-04-15T00:04:04.730Z,7.97
2023-04-15T00:06:31.330Z,7.96
2023-04-15T00:08:57.873Z,8.07
2023-04-15T00:11:24.498Z,8.04
2023-04-15T00:13:51.161Z,7.88
2023-04-15T00:16:17.724Z,7.95
2023-04-15T00:18:44.181Z,7.89
2023-04-15T00:21:10.588Z,7.60
2023-04-15T00:23:36.969Z,7.54
2023-04-15T00:26:03.408Z,7.60
2023-04-15T00:28:30.929Z,7.81
2023-04-15T00:30:57.668Z,7.52
2023-04-15T00:33:24.125Z,7.53
2023-04-15T00:35:50.885Z,7.55
2023-04-15T00:38:17.689Z,7.55
2023-04-15T00:40:44.151Z,7.47
2023-04-15T00:43:10.564Z,7.35
2023-04-15T00:45:37.275Z,7.32
2023-04-15T00:48:03.915Z,7.36
2023-04-15T00:50:30.392Z,7.50
2023-04-15T00:52:56.761Z,7.40
2023-04-15T00:55:23.224Z,7.51
2023-04-15T00:57:50.563Z,7.60
2023-04-15T01:00:16.967Z,7.31
2023-04-15T01:02:43.664Z,7.17
2023-04-15T01:05:10.145Z,7.31
2023-04-15T01:07:36.734Z,7.44
2023-04-15T01:10:04.326Z,7.36
2023-04-15T01:12:32.420Z,7.24
2023-04-15T01:14:59.338Z,7.22
2023-04-15T01:17:25.809Z,7.24
2023-04-15T01:19:52.861Z,7.23
2023-04-15T01:22:19.634Z,7.27
2023-04-15T01:25:02.340Z,7.31
2023-04-15T01:27:28.779Z,7.27
2023-04-15T01:29:55.154Z,7.25
2023-04-15T01:32:21.615Z,7.13
2023-04-15T01:34:47.988Z,7.21
2023-04-15T01:37:14.418Z,7.21
2023-04-15T01:39:41.087Z,6.91
2023-04-15T01:42:07.566Z,6.54
2023-04-15T01:44:33.992Z,5.86
2023-04-15T01:47:00.683Z,6.13
2023-04-15T01:49:27.556Z,6.34
2023-04-15T01:51:54.186Z,6.40
2023-04-15T01:54:20.628Z,6.33
2023-04-15T01:56:47.225Z,6.59
2023-04-15T01:59:13.743Z,6.28
2023-04-15T02:01:40.859Z,5.95
2023-04-15T02:04:08.041Z,6.28
2023-04-15T02:06:34.522Z,6.33
2023-04-15T02:09:01.078Z,6.22
2023-04-15T02:11:27.659Z,6.12
2023-04-15T02:13:54.029Z,6.19
2023-04-15T02:16:20.599Z,6.23
2023-04-15T02:18:47.412Z,6.51
2023-04-15T02:21:14.159Z,6.60
2023-04-15T02:23:40.553Z,6.51
2023-04-15T02:26:08.036Z,6.55
2023-04-15T02:28:34.418Z,6.40
2023-04-15T02:31:02.163Z,6.49
2023-04-15T02:33:28.587Z,6.32
2023-04-15T02:35:55.012Z,6.27
2023-04-15T02:38:21.437Z,6.47
2023-04-15T02:40:49.632Z,6.34
2023-04-15T02:43:17.143Z,6.37
2023-04-15T02:45:43.921Z,6.24
2023-04-15T02:48:10.616Z,6.14
2023-04-15T02:50:39.898Z,6.21
2023-04-15T02:53:06.941Z,6.38
2023-04-15T02:55:33.356Z,6.22
2023-04-15T02:58:01.004Z,6.10
2023-04-15T03:00:28.229Z,6.08
2023-04-15T03:02:59.436Z,6.02
2023-04-15T03:05:26.100Z,5.81
2023-04-15T03:07:52.822Z,6.00
2023-04-15T03:10:19.904Z,5.90
2023-04-15T03:12:46.414Z,5.92
2023-04-15T03:15:12.831Z,5.86
2023-04-15T03:17:39.264Z,6.01
2023-04-15T03:20:06.684Z,5.85
2023-04-15T03:22:33.394Z,5.86
2023-04-15T03:24:59.771Z,5.74
2023-04-15T03:27:26.173Z,5.88
2023-04-15T03:29:52.646Z,5.94
2023-04-15T03:32:19.212Z,5.95
2023-04-15T03:34:45.644Z,6.06
2023-04-15T03:37:12.048Z,5.92
2023-04-15T03:39:38.908Z,5.73
2023-04-15T03:42:05.469Z,5.71
2023-04-15T03:44:32.736Z,5.78
2023-04-15T03:46:59.144Z,5.84
2023-04-15T03:49:25.541Z,5.84
2023-04-15T03:51:52.218Z,5.69
2023-04-15T03:54:18.594Z,5.74
2023-04-15T03:56:44.964Z,5.68
2023-04-15T03:59:11.384Z,5.64
2023-04-15T04:01:37.819Z,5.68
2023-04-15T04:04:04.362Z,5.51
2023-04-15T04:06:31.091Z,5.67
2023-04-15T04:08:57.471Z,5.75
2023-04-15T04:11:23.849Z,5.68
2023-04-15T04:13:50.249Z,5.56
2023-04-15T04:16:17.171Z,5.69
2023-04-15T04:18:43.656Z,5.69
2023-04-15T04:21:10.085Z,5.55
2023-04-15T04:23:36.484Z,5.33
2023-04-15T04:26:02.857Z,5.50
2023-04-15T04:28:29.265Z,5.57
2023-04-15T04:30:56.249Z,5.62
2023-04-15T04:33:22.707Z,5.59
2023-04-15T04:35:49.082Z,5.59
2023-04-15T04:38:15.463Z,5.62
2023-04-15T04:40:41.909Z,5.83
2023-04-15T04:43:08.319Z,5.66
2023-04-15T04:45:34.880Z,5.56
2023-04-15T04:48:01.672Z,5.51
2023-04-15T04:50:28.124Z,5.54
2023-04-15T04:52:54.512Z,5.56
2023-04-15T04:55:21.144Z,5.50
2023-04-15T04:57:47.525Z,5.51
2023-04-15T05:00:14.093Z,5.58
2023-04-15T05:02:42.401Z,5.62
2023-04-15T05:05:09.587Z,5.61
2023-04-15T05:07:36.060Z,5.55
2023-04-15T05:10:02.424Z,5.79
2023-04-15T05:12:28.806Z,5.80
2023-04-15T05:14:55.194Z,5.81
2023-04-15T05:17:21.899Z,5.90
2023-04-15T05:19:48.415Z,5.91
2023-04-15T05:22:14.797Z,5.86
2023-04-15T05:24:41.206Z,5.75
2023-04-15T05:27:08.492Z,5.88
2023-04-15T05:29:34.952Z,5.96
2023-04-15T05:32:01.627Z,6.03
2023-04-15T05:34:28.053Z,6.31
2023-04-15T05:36:54.424Z,6.33
2023-04-15T05:39:20.816Z,6.20
2023-04-15T05:41:47.230Z,6.24
2023-04-15T05:44:13.605Z,6.38
2023-04-15T05:46:40.147Z,6.53
2023-04-15T05:49:06.931Z,6.73
2023-04-15T05:51:33.308Z,6.69
2023-04-15T05:53:59.699Z,6.63
2023-04-15T05:56:27.016Z,6.66
2023-04-15T05:58:53.907Z,6.91
2023-04-15T06:01:20.612Z,6.97
2023-04-15T06:03:47.139Z,6.94
2023-04-15T06:06:14.296Z,6.96
2023-04-15T06:08:41.019Z,6.99
2023-04-15T06:11:07.403Z,7.17
2023-04-15T06:13:34.810Z,7.05
2023-04-15T06:16:01.502Z,7.14
2023-04-15T06:18:27.938Z,7.40
2023-04-15T06:20:54.329Z,7.49
2023-04-15T06:23:21.120Z,7.33
2023-04-15T06:25:47.602Z,7.40
2023-04-15T06:28:13.963Z,7.60
2023-04-15T06:30:40.413Z,7.94
2023-04-15T06:33:07.338Z,8.00
2023-04-15T06:35:33.721Z,8.06
2023-04-15T06:38:00.193Z,8.06
2023-04-15T06:40:26.795Z,8.21
2023-04-15T06:42:53.195Z,8.21
2023-04-15T06:45:19.580Z,8.23
2023-04-15T06:47:46.070Z,8.32
2023-04-15T06:50:12.510Z,8.29
2023-04-15T06:52:38.920Z,8.37
2023-04-15T06:55:06.883Z,8.70
2023-04-15T06:57:34.911Z,8.79
2023-04-15T07:00:01.975Z,8.73
2023-04-15T07:02:28.443Z,8.65
2023-04-15T07:04:55.485Z,9.02
2023-04-15T07:07:21.854Z,8.77
2023-04-15T07:09:48.313Z,8.95
2023-04-15T07:12:14.696Z,9.15
2023-04-15T07:14:41.114Z,9.23
2023-04-15T07:17:08.763Z,9.08
2023-04-15T07:19:35.819Z,8.73
2023-04-15T07:22:02.211Z,9.01
2023-04-15T07:24:28.644Z,8.98
2023-04-15T07:26:58.648Z,9.14
2023-04-15T07:29:27.047Z,8.98
2023-04-15T07:31:53.431Z,8.77
2023-04-15T07:34:20.745Z,8.90
2023-04-15T07:36:50.453Z,8.88
2023-04-15T07:39:16.900Z,8.82
2023-04-15T07:41:43.287Z,8.78
2023-04-15T07:44:09.901Z,8.71
2023-04-15T07:46:37.232Z,8.67
2023-04-15T07:49:04.277Z,8.64
2023-04-15T07:51:32.214Z,8.61
2023-04-15T07:53:59.180Z,8.63
2023-04-15T07:56:26.404Z,8.74
2023-04-15T07:58:52.950Z,8.85
2023-04-15T08:01:19.328Z,8.73
2023-04-15T08:03:45.867Z,9.08
2023-04-15T08:06:12.383Z,9.15
2023-04-15T08:08:38.741Z,9.15
2023-04-15T08:11:05.298Z,9.35
2023-04-15T08:13:31.678Z,9.27
2023-04-15T08:16:22.555Z,9.13
2023-04-15T08:18:50.206Z,9.38
2023-04-15T08:21:17.759Z,9.14
2023-04-15T08:23:45.421Z,9.32
2023-04-15T08:26:12.791Z,9.42
2023-04-15T08:28:42.421Z,9.40
2023-04-15T08:31:09.561Z,9.20
2023-04-15T08:33:36.209Z,9.17
2023-04-15T08:36:03.244Z,9.15
2023-04-15T08:38:29.626Z,8.82
2023-04-15T08:40:57.262Z,8.77
2023-04-15T08:43:28.290Z,8.83
2023-04-15T08:45:55.294Z,9.12
2023-04-15T08:48:22.704Z,9.19
2023-04-15T08:50:49.096Z,9.34
2023-04-15T08:53:15.629Z,9.41
2023-04-15T08:55:46.412Z,9.22
2023-04-15T08:58:14.050Z,9.32
2023-04-15T09:00:41.294Z,9.33
2023-04-15T09:03:09.128Z,9.32
2023-04-15T09:05:36.592Z,9.25
2023-04-15T09:08:03.921Z,9.10
2023-04-15T09:10:30.873Z,9.19
2023-04-15T09:12:57.395Z,9.59
2023-04-15T09:15:29.855Z,9.29
2023-04-15T09:17:56.810Z,9.34
2023-04-15T09:20:23.651Z,9.14
2023-04-15T09:22:51.017Z,9.36
2023-04-15T09:25:24.218Z,9.38
2023-04-15T09:27:51.825Z,9.10
2023-04-15T09:30:18.335Z,9.18
2023-04-15T09:32:55.651Z,9.34
2023-04-15T09:35:22.945Z,9.49
2023-04-15T09:37:50.303Z,9.44
2023-04-15T09:40:32.686Z,9.54
2023-04-15T09:42:59.189Z,9.72
2023-04-15T09:45:29.366Z,9.53
2023-04-15T09:47:59.149Z,9.68
2023-04-15T09:50:29.542Z,9.61
2023-04-15T09:52:56.358Z,9.53
2023-04-15T09:55:22.924Z,9.43
2023-04-15T09:57:49.385Z,9.44
2023-04-15T10:00:16.031Z,9.32
2023-04-15T10:02:43.260Z,9.65
2023-04-15T10:05:14.915Z,9.31
2023-04-15T10:07:42.818Z,9.39
2023-04-15T10:10:11.008Z,9.49
2023-04-15T10:12:38.152Z,9.51
2023-04-15T10:15:05.615Z,9.58
2023-04-15T10:17:35.215Z,9.71
2023-04-15T10:20:03.516Z,9.97
2023-04-15T10:22:30.648Z,10.08
2023-04-15T10:24:57.567Z,10.10
2023-04-15T10:27:24.538Z,9.76
2023-04-15T10:29:51.293Z,9.76
2023-04-15T10:32:19.831Z,9.44
2023-04-15T10:34:47.829Z,9.51
2023-04-15T10:37:23.570Z,9.53
2023-04-15T10:39:50.647Z,9.39
2023-04-15T10:42:19.293Z,9.25
2023-04-15T10:44:49.125Z,9.43
2023-04-15T10:47:18.979Z,9.56
2023-04-15T10:49:57.102Z,9.40
2023-04-15T10:52:25.992Z,9.42
2023-04-15T10:55:11.108Z,9.48
2023-04-15T10:57:41.956Z,9.67
2023-04-15T11:00:09.013Z,9.57
2023-04-15T11:02:56.956Z,9.56
2023-04-15T11:05:49.934Z,9.71
2023-04-15T11:08:16.706Z,9.61
2023-04-15T11:10:42.990Z,9.79
2023-04-15T11:13:09.283Z,9.91
2023-04-15T11:15:44.892Z,9.80
2023-04-15T11:18:19.157Z,9.83
2023-04-15T11:20:50.834Z,9.58
2023-04-15T11:23:27.494Z,9.55
2023-04-15T11:25:56.217Z,9.49
2023-04-15T11:28:25.825Z,9.44
2023-04-15T11:30:52.247Z,9.57
2023-04-15T11:33:18.614Z,9.72
2023-04-15T11:35:45.024Z,9.86
2023-04-15T11:38:12.886Z,9.97
2023-04-15T11:40:39.841Z,10.12
2023-04-15T11:43:20.972Z,10.22
2023-04-15T11:45:51.399Z,10.16
2023-04-15T11:48:18.673Z,9.83
2023-04-15T11:50:45.410Z,9.95
2023-04-15T11:53:13.531Z,9.78
2023-04-15T11:55:44.668Z,9.89
2023-04-15T11:58:12.864Z,9.93
2023-04-15T12:00:41.141Z,10.09
2023-04-15T12:03:36.100Z,9.90
2023-04-15T12:06:21.868Z,9.79
2023-04-15T12:08:55.233Z,10.00
2023-04-15T12:11:29.372Z,9.80
2023-04-15T12:14:22.699Z,9.94
2023-04-15T12:16:53.836Z,10.27
2023-04-15T12:19:23.323Z,10.27
2023-04-15T12:21:49.999Z,10.18
2023-04-15T12:24:21.011Z,9.93
2023-04-15T12:26:53.483Z,9.95
2023-04-15T12:29:21.043Z,9.81
2023-04-15T12:31:48.687Z,9.89
2023-04-15T12:34:15.722Z,9.89
2023-04-15T12:36:42.392Z,9.98
2023-04-15T12:39:08.894Z,10.01
2023-04-15T12:41:35.383Z,10.24
2023-04-15T12:44:02.018Z,10.11
2023-04-15T12:46:28.654Z,10.14
2023-04-15T12:48:55.031Z,10.08
2023-04-15T12:51:21.722Z,10.00
2023-04-15T12:53:49.495Z,10.14
2023-04-15T12:56:16.965Z,9.89
2023-04-15T12:58:43.393Z,9.83
2023-04-15T13:01:10.661Z,10.02
2023-04-15T13:03:37.211Z,10.18
2023-04-15T13:06:04.827Z,10.16
2023-04-15T13:08:31.680Z,10.15
2023-04-15T13:10:58.115Z,10.03
2023-04-15T13:13:24.543Z,9.89
2023-04-15T13:15:51.076Z,9.86
2023-04-15T13:18:17.534Z,10.00
2023-04-15T13:20:43.916Z,9.98
2023-04-15T13:23:10.513Z,9.92
2023-04-15T13:25:36.910Z,10.25
2023-04-15T13:28:03.347Z,10.08
2023-04-15T13:30:29.727Z,10.13
2023-04-15T13:32:56.124Z,9.93
2023-04-15T13:35:22.525Z,10.07
2023-04-15T13:37:48.899Z,10.06
2023-04-15T13:40:15.462Z,9.78
2023-04-15T13:42:42.688Z,10.00
2023-04-15T13:45:09.722Z,10.11
2023-04-15T13:47:36.476Z,9.89
2023-04-15T13:50:02.935Z,10.01
2023-04-15T13:52:30.466Z,10.09
2023-04-15T13:55:07.483Z,9.85
2023-04-15T13:57:43.285Z,9.78
2023-04-15T14:00:10.452Z,9.78
2023-04-15T14:02:36.971Z,9.75
2023-04-15T14:05:03.598Z,9.82
2023-04-15T14:07:30.794Z,10.09
2023-04-15T14:09:57.236Z,9.72
2023-04-15T14:12:23.642Z,10.01
2023-04-15T14:14:50.022Z,9.75
2023-04-15T14:17:16.426Z,9.91
2023-04-15T14:19:42.857Z,9.78
2023-04-15T14:22:09.234Z,9.66
2023-04-15T14:24:35.701Z,9.65
2023-04-15T14:27:02.174Z,9.79
2023-04-15T14:29:28.557Z,9.72
2023-04-15T14:32:04.127Z,9.64
2023-04-15T14:34:37.603Z,9.58
2023-04-15T14:37:04.080Z,9.96
2023-04-15T14:39:31.080Z,10.12
2023-04-15T14:41:57.568Z,10.10
2023-04-15T14:44:24.109Z,9.61
2023-04-15T14:46:51.674Z,9.37
2023-04-15T14:49:18.110Z,9.32
2023-04-15T14:51:44.597Z,9.41
2023-04-15T14:54:11.001Z,9.45
2023-04-15T14:56:37.388Z,9.35
2023-04-15T14:59:03.872Z,9.41
2023-04-15T15:01:30.439Z,9.35
2023-04-15T15:03:57.137Z,9.32
2023-04-15T15:06:23.537Z,9.33
2023-04-15T15:08:49.939Z,9.22
2023-04-15T15:11:16.943Z,9.21
2023-04-15T15:13:43.352Z,8.96
2023-04-15T15:16:10.994Z,8.83
2023-04-15T15:18:38.952Z,8.77
2023-04-15T15:21:05.438Z,8.79
2023-04-15T15:23:31.983Z,8.81
2023-04-15T15:25:58.970Z,8.70
2023-04-15T15:28:25.549Z,8.77
2023-04-15T15:30:51.962Z,8.84
2023-04-15T15:33:18.359Z,8.92
2023-04-15T15:35:44.766Z,8.92
2023-04-15T15:38:11.720Z,8.84
2023-04-15T15:40:38.085Z,8.86
2023-04-15T15:43:04.733Z,8.88
2023-04-15T15:45:31.366Z,9.03
2023-04-15T15:47:58.768Z,8.81
2023-04-15T15:50:25.219Z,8.90
2023-04-15T15:52:51.696Z,8.88
2023-04-15T15:55:18.116Z,8.96
2023-04-15T15:57:44.553Z,8.69
2023-04-15T16:00:12.702Z,8.90
2023-04-15T16:03:05.241Z,8.78
2023-04-15T16:05:25.974Z,8.76
2023-04-15T16:07:52.399Z,8.58
2023-04-15T16:10:18.802Z,8.85
2023-04-15T16:12:45.358Z,8.75
2023-04-15T16:15:12.288Z,8.75
2023-04-15T16:17:38.789Z,8.87
2023-04-15T16:20:06.128Z,8.98
2023-04-15T16:22:34.212Z,9.03
2023-04-15T16:25:01.192Z,8.85
2023-04-15T16:27:27.946Z,8.73
2023-04-15T16:29:54.337Z,8.68
2023-04-15T16:32:20.837Z,8.74
2023-04-15T16:34:47.382Z,8.66
2023-04-15T16:37:13.832Z,8.83
2023-04-15T16:39:40.618Z,8.80
2023-04-15T16:42:07.365Z,8.61
2023-04-15T16:44:33.896Z,8.73
2023-04-15T16:47:02.189Z,8.65
2023-04-15T16:49:29.427Z,8.64
2023-04-15T16:51:55.869Z,8.62
2023-04-15T16:54:22.253Z,8.57
2023-04-15T16:56:48.664Z,8.53
2023-04-15T16:59:15.041Z,8.74
2023-04-15T17:01:41.588Z,8.70
2023-04-15T17:04:08.125Z,8.72
2023-04-15T17:06:34.601Z,8.58
2023-04-15T17:09:01.006Z,8.65
2023-04-15T17:11:27.993Z,8.58
2023-04-15T17:13:54.401Z,8.54
2023-04-15T17:16:20.870Z,8.60
2023-04-15T17:18:47.427Z,8.84
2023-04-15T17:21:16.034Z,8.54
2023-04-15T17:23:42.456Z,8.86
2023-04-15T17:26:08.854Z,8.67
2023-04-15T17:28:35.259Z,8.60
2023-04-15T17:31:01.696Z,8.66
2023-04-15T17:34:00.644Z,8.61
2023-04-15T17:36:14.668Z,8.79
2023-04-15T17:38:41.038Z,8.71
2023-04-15T17:41:07.810Z,8.68
2023-04-15T17:43:34.230Z,8.60
2023-04-15T17:46:00.768Z,8.53
2023-04-15T17:48:27.413Z,8.45
2023-04-15T17:50:53.889Z,8.40
2023-04-15T17:53:20.295Z,8.56
2023-04-15T17:55:46.665Z,8.53
2023-04-15T17:58:13.067Z,8.66
2023-04-15T18:00:39.441Z,8.54
2023-04-15T18:03:06.045Z,8.45
2023-04-15T18:05:32.488Z,8.32
2023-04-15T18:07:58.931Z,8.54
2023-04-15T18:10:25.476Z,8.46
2023-04-15T18:12:51.879Z,8.28
2023-04-15T18:15:18.691Z,8.50
2023-04-15T18:17:45.195Z,8.46
2023-04-15T18:20:12.641Z,8.32
2023-04-15T18:22:39.024Z,8.19
2023-04-15T18:25:06.038Z,8.30
2023-04-15T18:27:33.582Z,8.12
2023-04-15T18:30:00.073Z,8.24
2023-04-15T18:32:31.185Z,8.24
2023-04-15T18:34:58.201Z,8.26
2023-04-15T18:37:24.645Z,8.40
2023-04-15T18:39:51.355Z,8.35
2023-04-15T18:42:17.778Z,8.39
2023-04-15T18:44:44.165Z,8.49
2023-04-15T18:47:10.672Z,8.27
2023-04-15T18:49:37.034Z,8.13
2023-04-15T18:52:04.030Z,8.27
2023-04-15T18:54:30.603Z,8.34
2023-04-15T18:56:57.206Z,8.26
2023-04-15T18:59:29.280Z,8.31
2023-04-15T19:01:57.557Z,8.25
2023-04-15T19:04:24.041Z,8.22
2023-04-15T19:06:50.614Z,8.33
2023-04-15T19:09:17.206Z,8.48
2023-04-15T19:11:43.914Z,8.62
2023-04-15T19:14:10.763Z,8.70
2023-04-15T19:16:37.258Z,8.45
2023-04-15T19:19:03.968Z,8.19
2023-04-15T19:21:31.828Z,8.26
2023-04-15T19:23:58.313Z,8.28
2023-04-15T19:26:24.681Z,8.17
2023-04-15T19:28:53.074Z,8.13
2023-04-15T19:31:20.219Z,8.22
2023-04-15T19:33:46.872Z,8.32
2023-04-15T19:36:13.292Z,8.44
2023-04-15T19:38:39.663Z,8.22
2023-04-15T19:41:06.143Z,8.17
2023-04-15T19:43:32.551Z,8.31
2023-04-15T19:45:58.959Z,8.41
2023-04-15T19:48:25.773Z,8.14
2023-04-15T19:50:52.145Z,8.30
2023-04-15T19:53:18.538Z,8.34
2023-04-15T19:55:44.952Z,8.39
2023-04-15T19:58:11.512Z,8.10
2023-04-15T20:00:38.109Z,8.27
2023-04-15T20:03:04.978Z,8.37
2023-04-15T20:05:31.572Z,8.41
2023-04-15T20:07:59.815Z,8.38
2023-04-15T20:10:26.407Z,8.40
2023-04-15T20:12:53.494Z,8.39
2023-04-15T20:15:23.534Z,8.52
2023-04-15T20:17:50.228Z,8.38
2023-04-15T20:20:16.791Z,8.42
2023-04-15T20:22:43.242Z,8.61
2023-04-15T20:25:09.784Z,8.56
2023-04-15T20:27:36.213Z,8.38
2023-04-15T20:30:04.690Z,8.48
2023-04-15T20:32:35.188Z,8.20
2023-04-15T20:35:02.650Z,8.46
2023-04-15T20:37:30.396Z,8.61
2023-04-15T20:39:56.769Z,8.45
2023-04-15T20:42:23.309Z,8.31
2023-04-15T20:44:49.674Z,8.27
2023-04-15T20:47:16.362Z,8.33
2023-04-15T20:49:42.833Z,8.13
2023-04-15T20:52:09.386Z,8.35
2023-04-15T20:54:35.841Z,8.37
2023-04-15T20:57:02.475Z,8.22
2023-04-15T20:59:28.902Z,8.21
2023-04-15T21:01:57.026Z,8.17
2023-04-15T21:04:24.375Z,8.36
2023-04-15T21:06:52.015Z,8.21
2023-04-15T21:09:18.762Z,8.20
2023-04-15T21:12:00.333Z,8.20
2023-04-15T21:14:27.762Z,8.34
2023-04-15T21:16:54.205Z,8.53
2023-04-15T21:19:20.611Z,8.37
2023-04-15T21:21:47.011Z,8.21
2023-04-15T21:24:13.394Z,8.11
2023-04-15T21:26:39.761Z,8.23
2023-04-15T21:29:08.766Z,8.14
2023-04-15T21:31:37.035Z,8.18
2023-04-15T21:34:03.614Z,8.32
2023-04-15T21:36:30.165Z,8.13
2023-04-15T21:38:56.569Z,8.19
2023-04-15T21:41:22.950Z,8.39
2023-04-15T21:43:49.358Z,8.26
2023-04-15T21:46:22.418Z,8.22
2023-04-15T21:48:52.262Z,8.48
2023-04-15T21:51:18.695Z,8.45
2023-04-15T21:53:45.250Z,8.47
2023-04-15T21:56:11.919Z,8.20
2023-04-15T21:58:38.348Z,8.39
2023-04-15T22:01:04.942Z,8.36
2023-04-15T22:03:33.819Z,8.31
2023-04-15T22:06:01.762Z,8.25
2023-04-15T22:08:28.168Z,8.20
2023-04-15T22:10:54.986Z,8.22
2023-04-15T22:13:21.360Z,8.10
2023-04-15T22:15:48.119Z,8.24
2023-04-15T22:18:14.580Z,8.30
2023-04-15T22:20:41.008Z,8.27
2023-04-15T22:23:10.300Z,8.34
2023-04-15T22:25:37.247Z,8.26
2023-04-15T22:28:06.822Z,8.22
2023-04-15T22:30:37.179Z,8.41
2023-04-15T22:33:03.686Z,8.33
2023-04-15T22:35:30.057Z,8.22
2023-04-15T22:37:56.447Z,8.36
2023-04-15T22:40:22.809Z,8.44
2023-04-15T22:42:49.203Z,8.55
2023-04-15T22:45:15.893Z,8.66
2023-04-15T22:47:42.315Z,8.66
2023-04-15T22:50:09.004Z,8.44
2023-04-15T22:52:35.491Z,8.51
2023-04-15T22:55:01.859Z,8.66
2023-04-15T22:57:28.408Z,8.58
2023-04-15T22:59:54.837Z,8.32
2023-04-15T23:02:21.486Z,8.39
2023-04-15T23:04:48.131Z,8.25
2023-04-15T23:07:14.616Z,8.05
2023-04-15T23:09:40.981Z,8.18
2023-04-15T23:12:07.435Z,8.26
2023-04-15T23:14:33.824Z,8.19
2023-04-15T23:17:00.193Z,8.23
2023-04-15T23:19:26.569Z,8.17
2023-04-15T23:21:53.926Z,8.05
2023-04-15T23:24:20.533Z,8.01
2023-04-15T23:26:46.927Z,8.13
2023-04-15T23:29:13.357Z,8.18
2023-04-15T23:31:41.653Z,8.09
2023-04-15T23:34:08.155Z,8.30
2023-04-15T23:36:34.519Z,8.38
2023-04-15T23:39:00.896Z,8.25
2023-04-15T23:41:27.275Z,8.23
2023-04-15T23:43:53.648Z,8.07
2023-04-15T23:46:20.152Z,8.06
2023-04-15T23:48:47.797Z,8.10
2023-04-15T23:51:14.191Z,8.02
2023-04-15T23:53:40.694Z,8.01
2023-04-15T23:56:07.370Z,8.10
2023-04-15T23:58:34.687Z,8.06
